KSUS/SUS METAR and TAF weather

Enter ICAO airport designator
Station Type Date Time Source
KSUS METAR 2019/04/23 03:54 UTC NOAA

KSUS 230354Z 23007KT 10SM BKN060 OVC075 23/16 A2996 RMK AO2 SLP138 T02280161


Station Type Date Time Source
KSUS Decoded METAR 2019/04/23 03:54 UTC NOAA

SPIRIT OF ST. LOUIS AIRPORT , MO, United States (KSUS) 38-39N 090-39W 141M
Apr 22, 2019 - 11:54 PM EDT / 2019.04.23 0354 UTC
Wind: from the SW (230 degrees) at 8 MPH (7 KT):0
Visibility: 10 mile(s):0
Sky conditions: overcast
Temperature: 73.0 F (22.8 C)
Dew Point: 61.0 F (16.1 C)
Relative Humidity: 65%
Pressure (altimeter): 29.96 in. Hg (1014 hPa)
ob: KSUS 230354Z 23007KT 10SM BKN060 OVC075 23/16 A2996 RMK AO2 SLP138 T02280161
cycle: 4

Station Type Date Time Source
KSUS TAF 2019/04/23 02:18 UTC NOAA

TAF
AMD KSUS 230216Z 2302/2324 27007KT P6SM BKN060
FM230500 24007KT P6SM BKN060
FM230700 27008KT P6SM BKN040
FM231100 30007KT P6SM OVC025

Example: see airport list